Terminal Aerodrome Forecast
Issued by NWS

Home | Current Version | Previous Version | Text Only | Print | Product List | Glossary On
Versions: 1 2 3 4 5 6 7 8 9 10 11 12 13 14 15 16 17 18 19 20 21 22 23 24 25 26 27 28
000
FTUS46 KLOX 212023 AAA
TAFSBA
TAF AMD
KSBA 212023Z 2120/2218 11008KT 4SM -RA BR SCT008 BKN025
      TEMPO 2120/2122 10008KT 1SM -RA BR BKN010
     FM212200 26008KT P6SM VCSH BKN035 BKN060
     FM220300 VRB03KT P6SM SCT025 BKN100
     FM221000 VRB03KT P6SM OVC015
     FM221700 VRB03KT P6SM SCT025 BKN100=

USA.gov is the U.S. government's official web portal to all federal, state and local government web resources and services.